Home Team Position History
You can show your support by sponsoring this page for $50.  
Your ad/message will appear in this space for one year.  
Thank you for your support!       Team History Index Minnesota Twins
         
          First Base
             
Pos St All- Other 1st Base Fielding Statistics Pos St Batting Statistics as First Baseman Win Shares Pos St
Year Rank Rank Name HOF MVP Star Rookie GG SS Team Stdg Bats Age Pos Games PO Assts Err DP F Pct. Year Rank Rank Name At Bats Hits 2B 3B HR Runs RBI BB IBB SO HP SH SF SB CS GDP BA OBA SA OPS RC B WS F WS T WS BWS/G FWS/G TWS/G Adj WSQ Year Rank Rank Name
1901 6 6 Mike Grady     WAS 6 R 31 C   59 575 52 16 34 .975   1901 6 6 Mike Grady 223 63 11 6 6 37 36 17 5 1 9 .283 .347 .466 .813 44   7.5 0.9 8.4 .127 .015 .142 8.84 1901 6 6 Mike Grady
1901 10 Sam Dungan     WAS 6 R 34 RF   35 349 11 7 15 .981   1901 10 Sam Dungan 141 45 7 3 0 18 18 10 1 2 2 .319 .368 .411 .779 24   3.9 0.3 4.2 .111 .009 .120 4.06 1901 10 Sam Dungan
1901 14 Bill Everitt     WAS 6 L 32   33 319 8 11 12 .967   1901 14 Bill Everitt 115 22 3 2 0 14 8 15 3 4 7 .191 .301 .252 .553 13   0.8 0.4 1.2 .024 .012 .036 0.64 1901 14 Bill Everitt
         
1902 3 3 Scoops Carey     WAS 6 R 31   120 1190 69 14 54 .989   1902 3 3 Scoops Carey 452 142 35 11 0 46 60 20 5 5 3 .314 .350 .440 .790 72   11.8 1.6 13.4 .098 .013 .112 13.31 1902 3 3 Scoops Carey
         
1903 8 8 Boileryard Clarke     WAS 8 R 34 C   88 891 44 14 44 .985   1903 8 8 Boileryard Clarke 327 78 10 4 1 25 27 11 5 5 8 .239 .274 .303 .577 29   2.0 0.9 2.9 .023 .010 .033 1.53 1903 8 8 Boileryard Clarke
1903 9 Scoops Carey     WAS 8 R 32   47 435 23 11 18 .977   1903 9 Scoops Carey 183 37 3 2 0 8 23 4 1 2 0 .202 .223 .240 .463 8   - 0.4 0.4 .000 .009 .009 0.11 1903 9 Scoops Carey
         
1904 2 2 Jake Stahl   R   WAS 8 R 25 CF   119 1202 85 29 52 .978   1904 2 2 Jake Stahl 436 114 24 10 3 45 42 18 13 9 21 .261 .310 .383 .693 56   14.2 0.7 14.9 .119 .006 .125 15.62 1904 2 2 Jake Stahl
1904 14 Boileryard Clarke     WAS 8 R 35 C   29 288 14 6 15 .981   1904 14 Boileryard Clarke 98 21 3 0 0 8 6 6 2 1 2 .214 .274 .245 .519 7   0.6 0.4 1.0 .021 .014 .034 0.55 1904 14 Boileryard Clarke
         
1905 3 3 Jake Stahl     WAS 7 R 26   140 1593 94 21 51 .988   1905 3 3 Jake Stahl 501 125 22 12 5 66 66 28 17 14 41 .250 .311 .371 .682 82   18.2 2.5 20.7 .130 .018 .148 21.98 1905 3 3 Jake Stahl
         
1906 8 7 Jake Stahl     WAS 7 R 27   136 1322 78 24 51 .983   1906 8 7 Jake Stahl 482 107 9 8 0 38 51 21 8 15 30 .222 .266 .274 .540 41   5.6 2.0 7.6 .041 .015 .056 5.01 1906 8 7 Jake Stahl
         
1907 5 5 John Anderson     WAS 8 B 33 LF   61 615 32 11 13 .983   1907 5 5 John Anderson 233 67 8 3 0 23 31 24 2 1 13 .288 .359 .348 .707 32   8.5 0.5 9.0 .139 .008 .148 10.47 1907 5 5 John Anderson
1907 9 Dave Altizer     WAS 8 L 30 SS   50 479 24 10 18 .981   1907 9 Dave Altizer 186 50 5 2 1 21 14 12 2 7 13 .269 .320 .333 .653 21   4.4 0.4 4.8 .088 .008 .096 4.50 1907 9 Dave Altizer
1907 10 Charlie Hickman     WAS 8 R 31   30 289 16 11 12 .965   1907 10 Charlie Hickman 114 32 5 2 1 12 13 8 2 1 2 .281 .339 .386 .725 15   3.5 0.2 3.7 .117 .007 .123 3.94 1907 10 Charlie Hickman
         
1908 6 5 Jerry Freeman   R   WAS 7 L 28   154 1548 66 41 69 .975   1908 6 5 Jerry Freeman 531 134 15 5 1 45 45 36 3 9 6 .252 .304 .305 .609 52   10.4 0.8 11.2 .068 .005 .073 8.82 1908 6 5 Jerry Freeman
         
1909 11 8 Jiggs Donahue     WAS 8 L 29   81 766 36 13 28 .984   1909 11 8 Jiggs Donahue 283 67 12 1 0 13 28 22 1 14 9 .237 .294 .286 .580 25   3.9 0.7 4.6 .048 .009 .057 3.17 1909 11 8 Jiggs Donahue
1909 9 Bob Unglaub     WAS 8 R 27 2B,RF   57 555 36 5 31 .992   1909 9 Bob Unglaub 214 57 6 4 1 19 18 10 1 6 7 .266 .302 .346 .648 22   4.9 0.5 5.4 .086 .009 .095 4.87 1909 9 Bob Unglaub
         
1910 9 8 Bob Unglaub     WAS 7 R 28   124 1230 79 20 51 .985   1910 9 8 Bob Unglaub 431 101 9 4 0 29 44 21 0 12 21 .234 .270 .274 .544 33   3.3 2.0 5.3 .027 .016 .043 3.58 1910 9 8 Bob Unglaub
         
1911 1 1 Germany Schaefer     WAS 7 R 34   108 1038 71 23 57 .980   1911 1 1 Germany Schaefer 413 138 13 7 0 69 42 54 1 17 21 .334 .412 .400 .812 75   15.9 1.4 17.3 .147 .013 .160 20.53 1911 1 1 Germany Schaefer
1911 17 John Henry   R   WAS 7 R 21 C   30 301 27 10 9 .970   1911 17 John Henry 97 20 2 0 0 9 8 9 0 3 3 .206 .274 .227 .501 7   - 0.6 0.6 .000 .020 .020 0.25 1911 17 John Henry
         
1912 2 2 Chick Gandil 11     WAS 2 R 25   117 1106 68 12 49 .990   1912 2 2 Chick Gandil 443 135 20 15 2 59 81 27 4 18 21 .305 .350 .431 .781 77   16.0 1.7 17.7 .137 .015 .151 19.88 1912 2 2 Chick Gandil
1912 18 John Flynn     WAS 2 R 28   20 176 15 5 9 .974   1912 18 John Flynn 71 12 4 1 0 9 5 7 1 1 2 .169 .253 .254 .507 5   - 0.3 0.3 .000 .015 .015 0.11 1912 18 John Flynn
         
1913 2 2 Chick Gandil 6     WAS 2 R 26   145 1436 103 15 89 .990   1913 2 2 Chick Gandil 550 175 25 8 1 61 72 36 33 3 14 22 .318 .363 .398 .761 86   21.1 2.3 23.4 .146 .016 .161 27.20 1913 2 2 Chick Gandil
         
1914 4 4 Chick Gandil     WAS 3 R 27   145 1284 143 13 84 .991   1914 4 4 Chick Gandil 526 136 24 10 3 48 75 44 44 7 38 30 19 .259 .324 .359 .683 69   13.3 3.4 16.7 .092 .023 .115 17.08 1914 4 4 Chick Gandil
         
1915 2 2 Chick Gandil     WAS 4 R 28   134 1237 77 19 65 .986   1915 2 2 Chick Gandil 485 141 20 15 2 53 64 29 33 7 20 20 13 .291 .340 .406 .746 74   14.6 1.9 16.5 .109 .014 .123 16.06 1915 2 2 Chick Gandil
         
1916 8 8 Joe Judge   R   WAS 7 L 22   103 935 69 14 53 .986   1916 8 8 Joe Judge 336 74 10 8 0 42 28 54 44 3 6 18 .220 .333 .298 .631 37   6.5 1.0 7.5 .063 .010 .073 6.08 1916 8 8 Joe Judge
1916 13 Rip Williams     WAS 7 R 34 C   34 269 11 5 18 .982   1916 13 Rip Williams 118 32 6 1 0 9 12 9 11 1 6 3 .271 .328 .339 .667 13   2.5 0.4 2.9 .074 .012 .085 2.54 1916 13 Rip Williams
         
1917 2 2 Joe Judge     WAS 5 L 23   100 906 60 12 59 .988   1917 2 2 Joe Judge 393 112 15 15 2 62 30 50 40 2 6 17 .285 .369 .415 .784 64   17.5 1.0 18.5 .175 .010 .185 21.20 1917 2 2 Joe Judge
1917 9 Patsy Gharrity   R   WAS 5 R 25   46 371 29 8 19 .980   1917 9 Patsy Gharrity 156 44 4 0 0 13 16 12 16 0 5 6 .282 .333 .308 .641 18   3.8 0.3 4.1 .083 .007 .089 3.27 1917 9 Patsy Gharrity
         
1918 4 4 Joe Judge     WAS 3 L 24   130 1304 92 21 71 .985   1918 4 4 Joe Judge 502 131 23 7 1 56 46 49 32 4 28 20 .261 .332 .341 .673 59   11.2 1.8 13.0 .086 .014 .100 10.90 1918 4 4 Joe Judge
         
Pos St All- Other 1st Base Fielding Statistics Pos St Batting Statistics as First Baseman Win Shares Pos St
Year Rank Rank Name HOF MVP Star Rookie GG SS Team Stdg Bats Age Pos Games PO Assts Err DP F Pct. Year Rank Rank Name At Bats Hits 2B 3B HR Runs RBI BB IBB SO HP SH SF SB CS GDP BA OBA SA OPS RC B WS F WS T WS BWS/G FWS/G TWS/G Adj WSQ Year Rank Rank Name
1919 3 3 Joe Judge     WAS 7 L 25   133 1177 78 15 66 .988   1919 3 3 Joe Judge 521 150 33 12 2 83 31 81 35 2 5 23 .288 .386 .409 .795 84   15.5 1.5 17.0 .117 .011 .128 16.47 1919 3 3 Joe Judge
         
1920 2 2 Joe Judge     WAS 6 L 26   124 1194 62 10 67 .992   1920 2 2 Joe Judge 493 164 19 15 5 103 51 65 34 5 13 12 12 .333 .416 .462 .878 94   19.8 1.9 21.7 .160 .015 .175 25.02 1920 2 2 Joe Judge
         
1921 2 2 Joe Judge     WAS 4 L 27   152 1417 89 6 109 .996   1921 2 2 Joe Judge 622 187 26 11 7 87 72 68 35 3 22 21 6 .301 .372 .412 .784 97   16.4 2.6 19.0 .108 .017 .125 19.62 1921 2 2 Joe Judge
         
1922 5 5 Joe Judge T8     WAS 6 L 28   147 1392 101 6 131 .996   1922 5 5 Joe Judge 591 174 32 15 10 84 81 50 20 6 14 5 15 .294 .355 .450 .805 88   15.6 2.3 17.9 .106 .016 .122 17.05 1922 5 5 Joe Judge
         
1923 3 3 Joe Judge T15     WAS 4 L 29   112 1070 88 8 113 .993   1923 3 3 Joe Judge 405 127 24 6 2 56 63 58 20 5 18 11 7 .314 .406 .417 .823 73   15.3 1.6 16.9 .137 .014 .151 18.89 1923 3 3 Joe Judge
1923 10 Patsy Gharrity     WAS 4 R 31 C   33 309 28 6 22 .983   1923 10 Patsy Gharrity 122 25 4 2 1 13 16 11 13 1 3 3 1 .205 .276 .295 .571 11   0.7 0.6 1.3 .021 .018 .039 0.75 1923 10 Patsy Gharrity
         
1924 2 2 Joe Judge     WAS 1 L 30   140 1276 86 8 108 .994   1924 2 2 Joe Judge 516 167 38 9 3 71 79 53 21 6 19 13 8 .324 .393 .450 .843 89   16.2 2.9 19.1 .116 .021 .136 20.21 1924 2 2 Joe Judge
1924 11 Mule Shirley   R   WAS 1 L 23   25 176 14 3 17 .984   1924 11 Mule Shirley 77 18 2 2 0 12 16 3 7 0 7 0 0 .234 .263 .312 .575 6   - - - .000 .000 .000 - 1924 11 Mule Shirley
         
1925 3 3 Joe Judge     WAS 1 L 31   109 901 71 7 92 .993   1925 3 3 Joe Judge 376 118 31 5 8 65 66 55 21 3 10 7 12 .314 .406 .487 .893 72   13.1 1.9 15.0 .120 .017 .138 16.47 1925 3 3 Joe Judge
1925 7 Joe Harris     WAS 1 R 33 RF   58 393 38 5 39 .989   1925 7 Joe Harris 176 57 12 5 7 35 35 30 16 3 4 4 2 .324 .431 .568 .999 42   8.5 0.9 9.4 .147 .016 .162 11.20 1925 7 Joe Harris
         
1926 5 5 Joe Judge T18     WAS 4 L 32   128 1145 95 8 90 .994   1926 5 5 Joe Judge 453 132 25 11 7 70 92 53 25 1 24 7 5 .291 .367 .442 .809 77   13.9 2.0 15.9 .109 .016 .124 15.28 1926 5 5 Joe Judge
1926 8 Joe Harris     WAS 4 R 34 RF   36 293 17 2 20 .994   1926 8 Joe Harris 130 40 7 5 3 22 28 19 5 3 4 1 2 .308 .408 .508 .916 26   5.6 0.5 6.1 .156 .014 .169 6.85 1926 8 Joe Harris
         
1927 4 4 Joe Judge     WAS 3 L 33   137 1309 71 6 79 .996   1927 4 4 Joe Judge 522 161 29 11 2 68 71 45 22 2 23 10 5 .308 .366 .418 .784 83   13.8 1.8 15.6 .101 .013 .114 13.51 1927 4 4 Joe Judge
         
1928 3 3 Joe Judge T3     WAS 4 L 34   149 1412 92 6 118 .996   1928 3 3 Joe Judge 542 166 31 10 3 78 93 80 19 1 23 16 4 .306 .396 .417 .813 91   14.6 2.0 16.6 .098 .013 .111 14.33 1928 3 3 Joe Judge
         
1929 6 6 Joe Judge     WAS 5 L 35   142 1323 88 6 116 .996   1929 6 6 Joe Judge 543 171 35 8 6 83 71 73 33 1 21 12 5 .315 .397 .442 .839 100   17.4 2.2 19.6 .123 .015 .138 18.09 1929 6 6 Joe Judge
         
1930 4 4 Joe Judge     WAS 2 L 36   117 1050 67 2 95 .998   1930 4 4 Joe Judge 442 144 29 11 10 83 80 60 29 3 10 13 6 .326 .410 .509 .919 95   16.2 1.8 18.0 .138 .015 .154 17.29 1930 4 4 Joe Judge
1930 10 Art Shires     WAS 2 L 22   21 151 11 3 19 .982   1930 10 Art Shires 84 31 5 0 1 11 19 5 5 0 2 1 3 .369 .404 .464 .868 14   1.5 0.2 1.7 .071 .010 .081 1.17 1930 10 Art Shires
         
1931 5 5 Joe Kuhel   R   WAS 3 L 25   139 1255 57 12 119 .991   1931 5 5 Joe Kuhel 524 141 34 8 8 70 85 47 45 5 2 7 5 .269 .335 .410 .745 78   11.3 2.8 14.1 .081 .020 .101 11.55 1931 5 5 Joe Kuhel
         
1932 6 6 Joe Kuhel     WAS 3 L 26   85 761 45 5 64 .994   1932 6 6 Joe Kuhel 347 101 21 5 4 52 52 32 19 1 0 5 2 .291 .353 .415 .768 55   8.9 1.5 10.4 .105 .018 .122 8.97 1932 6 6 Joe Kuhel
1932 9 Joe Judge     WAS 3 L 38   78 668 46 2 71 .997   1932 9 Joe Judge 291 75 16 3 3 45 29 37 19 1 2 3 3 .258 .343 .364 .707 41   5.3 1.4 6.7 .068 .018 .086 4.84 1932 9 Joe Judge
         
1933 3 3 Joe Kuhel T15   WAS 1 L 27   153 1498 61 7 126 .996   1933 3 3 Joe Kuhel 602 194 34 10 11 89 107 59 48 2 11 17 8 .322 .385 .467 .852 113   23.0 3.0 26.0 .150 .020 .170 25.82 1933 3 3 Joe Kuhel
       
1934 8 8 Joe Kuhel   WAS 7 L 28   63 618 23 4 62 .994   1934 8 8 Joe Kuhel 263 76 12 3 3 49 25 30 14 1 5 2 7 .289 .364 .392 .756 36   4.2 0.9 5.1 .067 .014 .081 3.42 1934 8 8 Joe Kuhel
1934 9 Pete Susko R   WAS 7 L 29   58 608 40 8 58 .988   1934 9 Pete Susko 224 64 5 3 2 25 25 18 10 1 6 3 4 .286 .342 .362 .704 27   2.6 1.0 3.6 .045 .017 .062 2.11 1934 9 Pete Susko
1934 11 Red Kress   WAS 7 R 27   30 291 11 2 16 .993   1934 11 Red Kress 171 39 4 3 4 18 24 17 19 0 2 3 0 .228 .298 .357 .655 19   1.5 0.4 1.9 .050 .013 .063 1.12 1934 11 Red Kress
       
1935 6 6 Joe Kuhel   WAS 6 L 29   151 1425 87 14 150 .991   1935 6 6 Joe Kuhel 633 165 25 9 2 99 74 78 44 4 8 5 4 .261 .345 .338 .683 82   10.6 1.5 12.1 .070 .010 .080 8.56 1935 6 6 Joe Kuhel
       
1936 4 4 Joe Kuhel T6   WAS 4 L 30   149 1452 73 10 138 .993   1936 4 4 Joe Kuhel 584 188 42 8 16 106 117 64 30 4 3 15 7 .322 .393 .503 .896 118   18.8 2.4 21.2 .126 .016 .142 20.43 1936 4 4 Joe Kuhel
       
1937 6 6 Joe Kuhel   WAS 6 L 31   136 1242 85 9 141 .993   1937 6 6 Joe Kuhel 547 155 24 11 6 73 61 63 39 0 4 6 3 .283 .357 .400 .757 79   11.5 2.5 14.0 .085 .018 .103 11.04 1937 6 6 Joe Kuhel
1937 11 Jimmy Wasdell R   WAS 6 L 23   21 182 10 1 18 .995   1937 11 Jimmy Wasdell 83 21 3 3 2 10 9 5 10 0 1 0 1 .253 .295 .434 .729 10   1.1 0.3 1.4 .052 .014 .067 0.89 1937 11 Jimmy Wasdell
       
Pos St All- Other 1st Base Fielding Statistics Pos St Batting Statistics as First Baseman Win Shares Pos St
Year Rank Rank Name HOF MVP Star Rookie GG SS Team Stdg Bats Age Pos Games PO Assts Err DP F Pct. Year Rank Rank Name At Bats Hits 2B 3B HR Runs RBI BB IBB SO HP SH SF SB CS GDP BA OBA SA OPS RC B WS F WS T WS BWS/G FWS/G TWS/G Adj WSQ Year Rank Rank Name
1938 5 5 Zeke Bonura   WAS 5 R 29   129 1209 93 9 132 .993   1938 5 5 Zeke Bonura 540 156 27 3 22 72 114 44 29 3 2 2 2 .289 .346 .472 .818 85   13.3 2.4 15.7 .103 .019 .122 13.63 1938 5 5 Zeke Bonura
1938 12 Jimmy Wasdell   WAS 5 L 24   26 220 12 1 26 .996   1938 12 Jimmy Wasdell 114 27 2 1 2 15 13 10 10 0 2 4 2 .237 .298 .325 .623 10   0.4 0.4 0.8 .015 .015 .031 0.35 1938 12 Jimmy Wasdell
       
1939 12 8 Mickey Vernon R   WAS 6 L 21   75 690 40 11 75 .985   1939 12 8 Mickey Vernon 276 71 15 4 1 23 30 24 28 0 9 1 1 5 .257 .317 .351 .668 30   2.6 0.5 3.1 .035 .007 .041 1.62 1939 12 8 Mickey Vernon
1939 11 Jimmy Wasdell   WAS 6 L 25   28 255 15 10 24 .964   1939 11 Jimmy Wasdell 109 33 5 1 0 12 13 9 16 1 2 3 1 1 .303 .361 .367 .728 15   2.1 0.2 2.3 .075 .007 .082 1.70 1939 11 Jimmy Wasdell
1939 13 Bob Prichard R   WAS 6 L 21   26 251 13 2 30 .992   1939 13 Bob Prichard 85 20 5 0 0 8 8 19 16 0 2 0 2 0 .235 .375 .294 .669 10   1.2 0.2 1.4 .046 .008 .054 0.84 1939 13 Bob Prichard
       
1940 9 8 Zeke Bonura   WAS 7 R 31 NL-1B   79 712 42 14 70 .982   1940 9 8 Zeke Bonura 311 85 16 3 3 41 45 40 13 1 0 2 0 6 .273 .358 .373 .731 43   5.8 1.0 6.8 .073 .013 .086 5.42 1940 9 8 Zeke Bonura
1940 10 Jack Sanford R   WAS 7 R 23   34 282 15 2 38 .993   1940 10 Jack Sanford 122 24 4 2 0 5 10 6 17 0 0 0 0 0 .197 .234 .262 .496 7   - 0.4 0.4 .000 .012 .012 0.12 1940 10 Jack Sanford
       
1941 4 4 Mickey Vernon   WAS T6 L 23   132 1186 80 10 122 .992   1941 4 4 Mickey Vernon 531 159 27 11 9 73 93 43 51 0 7 9 3 12 .299 .352 .443 .795 85   14.8 1.2 16.0 .112 .009 .121 16.13 1941 4 4 Mickey Vernon
1941 12 George Archie R   WAS T6 R 27 3B   23 199 17 2 20 .991   1941 12 George Archie 91 24 5 1 1 11 12 7 10 0 0 2 1 2 .264 .316 .374 .690 11   1.4 0.3 1.7 .061 .013 .074 1.29 1941 12 George Archie
       
1942 3 3 Mickey Vernon   WAS 7 L 24   144 1384 105 13 116 .991   1942 3 3 Mickey Vernon 554 145 32 5 12 86 78 60 77 1 16 1 1 10 .262 .335 .403 .738 80   12.8 3.0 15.8 .089 .021 .110 15.15 1942 3 3 Mickey Vernon
       
1943 3 3 Mickey Vernon   WAS 2 L 25   143 1351 75 14 125 .990   1943 3 3 Mickey Vernon 553 148 29 8 7 89 70 67 55 10 8 24 8 10 .268 .357 .387 .744 84   19.1 1.5 20.6 .134 .010 .144 22.69 1943 3 3 Mickey Vernon
       
1944 4 4 Joe Kuhel   WAS 8 L 38   138 1251 83 17 119 .987   1944 4 4 Joe Kuhel 518 144 26 7 4 90 51 68 40 2 9 11 6 12 .278 .364 .378 .742 75   15.9 1.4 17.3 .115 .010 .125 17.17 1944 4 4 Joe Kuhel
       
1945 1 1 Joe Kuhel 12   WAS 2 L 39   141 1323 94 16 101 .989   1945 1 1 Joe Kuhel 533 152 29 13 2 73 75 79 31 1 2 10 5 7 .285 .378 .400 .778 88   22.9 2.6 25.5 .162 .018 .181 31.44 1945 1 1 Joe Kuhel
1945 10 George Binks 21 R   WAS 2 L 28 LF,CF,RF   20 164 12 1 13 .994   1945 10 George Binks 72 20 4 1 1 8 11 4 7 0 1 1 1 1 .278 .316 .403 .719 9   2.0 0.4 2.4 .100 .020 .120 2.41 1945 10 George Binks
       
1946 1 1 Mickey Vernon 5 A   WAS 4 L 28   147 1320 101 15 133 .990   1946 1 1 Mickey Vernon 587 207 51 8 8 88 85 49 64 0 2 14 10 12 .353 .403 .508 .911 106   31.0 2.2 33.2 .211 .015 .226 39.87 1946 1 1 Mickey Vernon
       
1947 4 4 Mickey Vernon   WAS 7 L 29   154 1299 105 19 123 .987   1947 4 4 Mickey Vernon 600 159 29 12 7 77 85 49 42 0 3 12 12 12 .265 .320 .388 .708 69   12.9 1.8 14.7 .084 .012 .095 13.16 1947 4 4 Mickey Vernon
       
1948 8 7 Mickey Vernon a   WAS 7 L 30   150 1297 113 15 128 .989   1948 8 7 Mickey Vernon 558 135 27 7 3 78 48 54 43 1 6 15 11 17 .242 .310 .332 .642 58   4.5 3.1 7.6 .030 .021 .051 5.51 1948 8 7 Mickey Vernon
       
1949 3 3 Eddie Robinson T18 A   WAS 8 L 28   143 1299 100 18 133 .987   1949 3 3 Eddie Robinson 527 155 27 3 18 66 78 67 30 7 2 3 4 17 .294 .381 .459 .840 83   16.5 1.8 18.3 .115 .013 .128 19.62 1949 3 3 Eddie Robinson
       
1950 6 5 Mickey Vernon   WAS 5 L 32   85 743 61 8 93 .990   1950 6 5 Mickey Vernon 327 100 17 3 9 47 65 50 29 4 3 6 1 3 .306 .404 .459 .863 65   10.6 1.5 12.1 .125 .018 .142 12.61 1950 6 5 Mickey Vernon
1950 3 Eddie Robinson   WAS 5 L 29   36 324 22 0 36 1.000   1950 3 Eddie Robinson 129 30 4 2 1 21 13 25 4 2 0 0 0 3 .233 .365 .318 .683 18   2.8 0.6 3.4 .078 .017 .094 2.97 1950 3 Eddie Robinson
       
1951 3 3 Mickey Vernon   WAS 7 L 33   137 1157 87 8 121 .994   1951 3 3 Mickey Vernon 546 160 30 7 9 69 87 53 45 2 1 7 6 11 .293 .358 .423 .781 86   14.9 2.7 17.6 .109 .020 .128 18.83 1951 3 3 Mickey Vernon
       
1952 4 4 Mickey Vernon   WAS 5 L 34   153 1291 115 10 139 .993   1952 4 4 Mickey Vernon 569 143 33 9 10 71 80 89 66 0 5 7 7 11 .251 .353 .394 .747 86   16.5 3.4 19.9 .108 .022 .130 19.18 1952 4 4 Mickey Vernon
       
1953 1 1 Mickey Vernon 3 A   WAS 5 L 35   152 1376 94 12 158 .992   1953 1 1 Mickey Vernon 608 205 43 11 15 101 115 63 57 4 4 4 6 15 .337 .403 .518 .921 123   26.3 2.8 29.1 .173 .018 .191 37.26 1953 1 1 Mickey Vernon
       
1954 1 1 Mickey Vernon T9 a-rep   WAS 6 L 36   148 1365 76 11 144 .992   1954 1 1 Mickey Vernon 594 171 33 14 20 90 96 61 9 61 5 4 6 1 3 10 .288 .356 .492 .848 104   20.9 2.7 23.6 .141 .018 .159 27.11 1954 1 1 Mickey Vernon
       
1955 2 2 Mickey Vernon 23 A   WAS 8 L 37   144 1258 69 8 137 .994   1955 2 2 Mickey Vernon 531 160 22 8 14 73 84 73 8 48 3 4 8 0 4 17 .301 .384 .452 .836 92   19.1 2.0 21.1 .147 .014 .147 23.13 1955 2 2 Mickey Vernon
       
1956 6 5 Pete Runnels T17   WAS 7 L 28 2B   81 693 49 4 73 .995   1956 6 5 Pete Runnels 313 99 16 3 4 40 39 35 0 37 1 2 3 0 5 9 .316 .384 .425 .809 50   9.0 0.8 9.8 .111 .010 .121 9.85 1956 6 5 Pete Runnels
1956 4 Roy Sievers 31 a(OF)   WAS 7 R 29 LF   76 638 51 7 75 .990   1956 4 Roy Sievers 268 69 12 2 18 49 53 51 6 45 2 0 0 0 0 8 .257 .380 .519 .899 54   10.4 0.9 11.3 .137 .012 .149 12.60 1956 4 Roy Sievers
       
Pos St All- Other 1st Base Fielding Statistics Pos St Batting Statistics as First Baseman Win Shares Pos St
Year Rank Rank Name HOF MVP Star Rookie GG SS Team Stdg Bats Age Pos Games PO Assts Err DP F Pct. Year Rank Rank Name At Bats Hits 2B 3B HR Runs RBI BB IBB SO HP SH SF SB CS GDP BA OBA SA OPS RC B WS F WS T WS BWS/G FWS/G TWS/G Adj WSQ Year Rank Rank Name
1957 12 8 Pete Runnels   WAS 8 L 29 2B,3B   72 616 44 3 59 .995   1957 12 8 Pete Runnels 256 57 11 1 1 27 18 31 2 23 2 1 3 1 2 4 .223 .308 .285 .593 24   2.7 0.8 3.5 .038 .011 .049 2.27 1957 12 8 Pete Runnels
1957 20 Julio Becquer R   WAS 8 L 25   43 300 19 0 29 1.000   1957 20 Julio Becquer 120 24 3 2 2 7 13 8 2 15 0 2 0 3 0 5 .200 .250 .308 .558 9   - 0.4 0.4 .000 .009 .009 0.11 1957 20 Julio Becquer
1957 16 Art Schult R   WAS 8 R 29   35 300 12 4 35 .987   1957 16 Art Schult 124 29 6 0 2 12 15 5 0 13 1 0 0 0 1 4 .234 .269 .331 .600 10   1.2 0.3 1.5 .034 .009 .043 0.91 1957 16 Art Schult
1957 10 Roy Sievers 3 a(OF)   WAS 8 R 30 LF   21 159 9 2 21 .988   1957 10 Roy Sievers 76 18 5 0 3 8 15 10 0 6 0 0 0 0 0 0 .237 .326 .421 .747 11   2.7 0.1 2.8 .129 .005 .133 2.99 1957 10 Roy Sievers
       
1958 9 6 Norm Zauchin   WAS 8 R 28   91 749 56 4 74 .995   1958 9 6 Norm Zauchin 298 68 8 2 15 36 36 38 1 71 1 1 6 0 1 11 .228 .312 .419 .731 38   6.2 1.8 8.0 .068 .020 .088 7.22 1958 9 6 Norm Zauchin
1958 19 Julio Becquer   WAS 8 L 26   42 319 34 2 26 .994   1958 19 Julio Becquer 123 28 2 0 0 4 5 5 3 17 0 2 1 1 2 5 .228 .256 .244 .500 6   - 0.8 0.8 .000 .019 .019 0.34 1958 19 Julio Becquer
1958 12 Roy Sievers 6   WAS 8 R 31 LF   33 260 21 3 36 .989   1958 12 Roy Sievers 116 35 1 0 7 14 19 7 0 14 0 0 1 0 1 5 .302 .339 .491 .830 17   3.9 0.4 4.3 .118 .012 .130 4.72 1958 12 Roy Sievers
       
1959 3 3 Roy Sievers a(2)   WAS 8 R 32   93 846 72 10 72 .989   1959 3 3 Roy Sievers 325 77 13 0 18 48 38 43 5 47 2 0 3 1 2 9 .237 .327 .443 .770 47   7.8 1.5 9.3 .084 .016 .100 9.56 1959 3 3 Roy Sievers
1959 17 Julio Becquer   WAS 8 L 27   53 454 32 5 38 .990   1959 17 Julio Becquer 164 47 10 4 0 15 13 7 1 8 1 0 0 2 3 5 .287 .320 .396 .716 9   2.4 0.8 3.2 .045 .015 .060 2.54 1959 17 Julio Becquer
       
1960 15 8 Julio Becquer   WAS 5 L 28   77 611 38 7 59 .989   1960 15 8 Julio Becquer 259 67 14 5 4 33 28 7 1 32 0 2 1 1 3 11 .259 .277 .398 .675 24   1.6 0.9 2.5 .021 .012 .032 1.23 1960 15 8 Julio Becquer
1960 7 Harmon Killebrew BBW   WAS 5 R 24 3B   71 584 32 8 69 .987   1960 7 Harmon Killebrew 263 70 7 0 20 49 50 40 3 66 0 0 1 1 0 7 .266 .362 .521 .883 50   10.1 0.7 10.8 .142 .010 .152 11.54 1960 7 Harmon Killebrew
1960 16 Don Mincher R   WAS 5 L 22   20 209 5 5 14 .977   1960 16 Don Mincher 72 17 4 1 2 9 5 11 0 9 0 1 1 0 1 4 .236 .333 .403 .736 9   0.9 0.3 1.2 .045 .015 .060 0.81 1960 16 Don Mincher
       
1961 4 4 Harmon Killebrew BBW 11 a(2)(3B)   MIN 7 R 25 3B   119 972 67 14 91 .987   1961 4 4 Harmon Killebrew 407 105 13 6 30 63 84 78 4 93 3 0 5 0 1 9 .258 .377 .541 .918 87   16.7 1.3 18.0 .140 .011 .151 17.72 1961 4 4 Harmon Killebrew
1961 16 Don Mincher R   MIN 7 L 23   29 234 18 8 28 .969   1961 16 Don Mincher 93 19 5 1 5 18 11 19 0 10 0 0 0 0 0 5 .204 .339 .441 .780 13   1.3 0.3 1.6 .045 .010 .055 0.95 1961 16 Don Mincher
       
1962 8 8 Vic Power T21 G   MIN 2 R 34   142 1193 134 10 133 .993   1962 8 8 Vic Power 605 174 27 2 16 78 61 22 0 35 3 11 3 7 2 14 .288 .314 .418 .732 77   11.7 2.9 14.6 .082 .020 .103 12.88 1962 8 8 Vic Power
1962 12 Don Mincher   MIN 2 L 24   25 211 13 5 17 .978   1962 12 Don Mincher 76 20 1 1 7 16 21 18 2 11 0 2 0 0 0 2 .263 .404 .579 .983 18   3.7 0.5 4.2 .148 .020 .168 4.74 1962 12 Don Mincher
       
1963 11 7 Vic Power G   MIN 3 R 35   124 896 76 8 86 .992   1963 11 7 Vic Power 435 110 24 2 7 52 42 21 0 20 0 9 2 1 1 12 .253 .286 .366 .652 43   5.6 1.7 7.3 .045 .014 .059 5.24 1963 11 7 Vic Power
1963 7 Don Mincher   MIN 3 L 25   60 446 27 8 34 .983   1963 7 Don Mincher 211 58 8 0 17 41 41 24 0 46 3 3 1 0 0 0 .275 .356 .555 .911 42   9.0 0.9 9.9 .150 .015 .165 11.88 1963 7 Don Mincher
       
1964 1 1 Bob Allison T23 A   MIN T6 R 29 LF,CF   93 715 55 11 63 .986   1964 1 1 Bob Allison 321 94 21 4 23 56 57 56 2 66 5 0 2 7 0 3 .293 .404 .598 1.002 84   17.4 1.2 18.6 .187 .013 .200 24.30 1964 1 1 Bob Allison
1964 11 Don Mincher   MIN T6 L 26   76 549 43 5 50 .992   1964 11 Don Mincher 245 61 10 4 19 41 48 23 1 38 0 3 3 0 0 5 .249 .310 .555 .865 42   6.8 1.0 7.8 .089 .013 .103 7.31 1964 11 Don Mincher
       
1965 2 2 Don Mincher   MIN 1 L 27   99 818 45 7 64 .992   1965 2 2 Don Mincher 314 81 16 3 21 41 64 45 14 63 2 2 4 1 3 3 .258 .351 .529 .880 59   14.3 1.2 15.5 .144 .012 .157 17.67 1965 2 2 Don Mincher
1965 3 Harmon Killebrew BBW 15 A   MIN 1 R 29 3B   72 636 35 8 64 .988   1965 3 Harmon Killebrew 257 72 9 1 15 55 42 43 10 49 3 0 1 0 0 8 .280 .388 .498 .886 50   12.7 0.7 13.4 .176 .010 .186 16.62 1965 3 Harmon Killebrew
       
1966 6 4 Don Mincher   MIN 2 L 28   130 995 85 9 62 .992   1966 6 4 Don Mincher 423 105 30 0 14 52 61 56 8 67 2 3 3 3 1 13 .248 .337 .418 .755 60   11.3 1.8 13.1 .087 .014 .101 11.86 1966 6 4 Don Mincher
1966 5 Harmon Killebrew BBW 4 a(3B)   MIN 2 R 30 3B   42 330 15 4 30 .989   1966 5 Harmon Killebrew 140 41 5 0 13 24 28 27 5 26 1 0 0 0 1 1 .293 .411 .607 1.018 36   8.7 0.5 9.2 .207 .012 .219 12.28 1966 5 Harmon Killebrew
       
1967 1 1 Harmon Killebrew BBW 2 A   MIN T2 R 31   160 1283 86 11 100 .992   1967 1 1 Harmon Killebrew 535 145 24 1 44 106 113 131 15 109 3 0 8 1 0 16 .271 .412 .566 .978 132   34.9 2.8 37.7 .218 .018 .236 47.39 1967 1 1 Harmon Killebrew
1967 20 Rich Reese R   MIN T2 L 25   36 93 3 1 5 .990   1967 20 Rich Reese 27 4 0 0 1 2 4 1 1 3 0 0 0 0 0 0 .148 .179 .259 .438 1   0.2 0.3 0.5 .006 .008 .014 0.16 1967 20 Rich Reese
       
1968 11 9 Rich Reese R   MIN 7 L 26   87 620 38 6 36 .991   1968 11 9 Rich Reese 261 73 14 2 2 32 22 11 2 29 3 3 0 3 1 6 .280 .316 .372 .688 30   5.1 1.3 6.4 .059 .015 .074 4.70 1968 11 9 Rich Reese
1968 10 Harmon Killebrew BBW A   MIN 7 R 32   77 594 56 4 50 .994   1968 10 Harmon Killebrew 257 53 6 2 13 38 34 57 9 58 2 0 4 0 0 10 .206 .350 .397 .747 37   8.4 1.1 9.5 .109 .014 .123 9.05 1968 10 Harmon Killebrew
       
1969 6 6 Rich Reese T29   MIN 1W L 27   117 924 56 7 97 .993   1969 6 6 Rich Reese 386 127 24 3 15 51 61 19 2 48 4 1 3 1 5 6 .329 .364 .523 .887 71   15.0 1.7 16.7 .128 .015 .143 16.91 1969 6 6 Rich Reese
1969 9 Harmon Killebrew BBW 1   MIN 1W R 33 3B   80 574 34 2 55 .997   1969 9 Harmon Killebrew 230 59 8 1 17 43 46 60 5 40 2 0 2 5 2 10 .257 .412 .522 .934 51   12.0 0.5 12.5 .150 .006 .156 13.24 1969 9 Harmon Killebrew
       
1970 8 7 Rich Reese   MIN 1W L 28   146 1118 82 10 94 .992   1970 8 7 Rich Reese 489 127 15 5 9 61 47 46 5 68 7 4 2 5 4 7 .260 .331 .366 .697 61   10.7 2.2 12.9 .073 .015 .088 10.62 1970 8 7 Rich Reese
1970 16 Harmon Killebrew BBW 3 A(3B)   MIN 1W R 34 3B   28 204 9 3 14 .986   1970 16 Harmon Killebrew 79 18 3 0 4 14 18 21 1 16 0 0 4 0 0 3 .228 .375 .418 .793 14   3.4 0.2 3.6 .121 .007 .129 3.57 1970 16 Harmon Killebrew
       
Pos St All- Other 1st Base Fielding Statistics Pos St Batting Statistics as First Baseman Win Shares Pos St
Year Rank Rank Name HOF MVP Star Rookie GG SS Team Stdg Bats Age Pos Games PO Assts Err DP F Pct. Year Rank Rank Name At Bats Hits 2B 3B HR Runs RBI BB IBB SO HP SH SF SB CS GDP BA OBA SA OPS RC B WS F WS T WS BWS/G FWS/G TWS/G Adj WSQ Year Rank Rank Name
1971 5 5 Harmon Killebrew BBW T21 a(3B)   MIN 5W R 35 3B   90 658 56 2 52 .997   1971 5 5 Harmon Killebrew 284 74 11 0 18 38 74 69 8 52 0 0 7 2 1 12 .261 .397 .489 .886 58   13.2 0.7 13.9 .147 .008 .154 15.14 1971 5 5 Harmon Killebrew
1971 19 Rich Reese   MIN 5W L 29   95 673 43 4 71 .994   1971 19 Rich Reese 286 64 7 3 10 34 37 20 2 30 4 0 5 7 4 9 .224 .279 .374 .653 28   2.8 1.6 4.4 .029 .017 .046 2.62 1971 19 Rich Reese
       
1972 6 6 Harmon Killebrew BBW   MIN 3W R 36   130 995 99 9 82 .992   1972 6 6 Harmon Killebrew 425 100 13 2 26 63 74 92 12 88 1 0 4 0 1 16 .235 .370 .459 .829 71   16.8 1.6 18.4 .129 .012 .142 17.35 1972 6 6 Harmon Killebrew
1972 20 Rich Reese   MIN 3W L 30   98 392 30 5 35 .988   1972 20 Rich Reese 124 24 2 1 4 11 17 19 4 18 0 0 1 0 1 2 .194 .299 .323 .622 12   1.8 0.8 2.6 .018 .008 .027 1.07 1972 20 Rich Reese
       
1973 17 11 Joe Lis   MIN 3W R 26   96 626 48 9 59 .987   1973 17 11 Joe Lis 245 60 11 1 9 36 23 26 1 64 3 0 2 0 1 12 .245 .322 .408 .730 29   3.8 0.8 4.6 .040 .008 .048 2.81 1973 17 11 Joe Lis
1973 15 Harmon Killebrew BBW   MIN 3W R 37   57 431 45 1 42 .998   1973 15 Harmon Killebrew 213 54 9 1 4 27 30 34 2 50 1 0 0 0 0 8 .254 .359 .362 .721 28   3.7 0.6 4.3 .065 .011 .075 3.28 1973 15 Harmon Killebrew
1973 23 Jim Holt   MIN 3W L 29 LF,RF   33 222 20 0 13 1.000   1973 23 Jim Holt 92 26 7 0 2 12 13 6 1 13 0 0 1 0 1 2 .283 .323 .424 .747 12   2.0 0.4 2.4 .061 .012 .073 1.80 1973 23 Jim Holt
       
1974 13 11 Craig Kusick R   MIN 3W R 25   75 479 42 2 45 .996   1974 13 11 Craig Kusick 194 46 6 1 8 33 26 34 1 35 1 0 1 0 0 4 .237 .352 .402 .754 28   5.6 1.0 6.6 .075 .013 .088 5.85 1974 13 11 Craig Kusick
1974 26 Jim Holt   MIN 3W L 30   67 449 43 2 57 .996   1974 26 Jim Holt 172 48 11 0 0 21 15 12 2 12 1 0 3 0 0 6 .279 .324 .343 .667 15   1.3 0.9 2.2 .019 .013 .033 1.26 1974 26 Jim Holt
1974 29 Harmon Killebrew BBW   MIN 3W R 38 DH   33 218 21 2 21 .992   1974 29 Harmon Killebrew 104 19 3 0 4 9 15 15 0 16 0 0 0 0 0 5 .183 .286 .327 .613 9   1.1 0.5 1.6 .033 .015 .048 1.05 1974 29 Harmon Killebrew
1974 28 Pat Bourque   MIN 3W L 27   21 133 18 2 15 .987   1974 28 Pat Bourque 59 14 2 0 1 7 8 7 0 10 0 0 0 0 0 2 .237 .318 .322 .640 6   0.8 0.3 1.1 .038 .014 .052 0.70 1974 28 Pat Bourque
       
1975 10 9 John Briggs   MIN 4W L 31 LF   49 420 53 8 38 .983   1975 10 9 John Briggs 163 42 6 1 4 28 29 32 8 23 0 0 1 2 1 1 .258 .378 .380 .758 26   7.2 0.7 7.9 .147 .014 .161 8.69 1975 10 9 John Briggs
1975 16 Craig Kusick   MIN 4W R 26   51 372 31 4 45 .990   1975 16 Craig Kusick 147 34 8 0 5 14 23 19 1 21 5 1 0 0 0 3 .231 .339 .388 .727 20   3.4 0.5 3.9 .067 .010 .076 2.95 1975 16 Craig Kusick
1975 28 Tom Kelly R   MIN 4W L 24   43 359 27 6 27 .985   1975 28 Tom Kelly 118 21 4 0 1 11 11 15 0 19 0 2 3 0 0 3 .178 .265 .237 .502 8   - 0.6 0.6 .000 .014 .014 0.20 1975 28 Tom Kelly
       
1976 1 1 Rod Carew BBW 6 A   MIN 3W L 30   152 1394 108 16 149 .989   1976 1 1 Rod Carew 596 196 29 11 8 94 82 64 12 50 1 8 6 47 22 12 .329 .391 .455 .846 106   26.5 1.5 28.0 .174 .010 .184 33.98 1976 1 1 Rod Carew
1976 17 Craig Kusick   MIN 3W R 27 DH   23 109 17 3 16 .977   1976 17 Craig Kusick 43 11 3 0 2 4 6 10 0 5 0 0 1 1 0 1 .256 .389 .465 .854 9   2.1 0.1 2.2 .091 .004 .096 1.92 1976 17 Craig Kusick
       
1977 1 1 Rod Carew BBW 1 A   MIN 4W L 31   151 1459 121 10 161 .994   1977 1 1 Rod Carew 606 235 38 16 14 126 95 68 15 54 3 1 5 23 13 6 .388 .449 .573 1.022 154   35.3 2.1 37.4 .234 .014 .248 52.36 1977 1 1 Rod Carew
1977 22 Craig Kusick   MIN 4W R 28 DH   23 133 7 4 9 .972   1977 22 Craig Kusick 49 12 1 0 3 8 9 8 1 13 0 0 1 1 0 4 .245 .345 .449 .794 7   1.1 0.2 1.3 .048 .009 .057 0.87 1977 22 Craig Kusick
       
1978 4 4 Rod Carew BBW 11 A   MIN 4W L 32   148 1362 105 16 134 .989   1978 4 4 Rod Carew 552 183 24 10 5 84 64 77 19 58 1 2 5 27 7 18 .332 .411 .438 .849 97   20.4 1.6 22.0 .138 .011 .149 24.06 1978 4 4 Rod Carew
1978 25 Craig Kusick   MIN 4W R 29 DH   27 213 22 3 14 .987   1978 25 Craig Kusick 75 12 1 0 1 8 4 17 1 20 0 0 1 2 2 2 .160 .312 .213 .525 6   0.1 0.2 0.3 .004 .007 .011 0.09 1978 25 Craig Kusick
       
1979 9 9 Ron Jackson   MIN 4W R 26   157 1447 137 9 175 .994   1979 9 9 Ron Jackson 574 156 39 5 14 85 67 49 5 57 9 6 4 3 1 14 .272 .336 .430 .766 83   11.7 2.5 14.2 .075 .016 .090 12.30 1979 9 9 Ron Jackson
       
1980 18 14 Ron Jackson MIN 3W R 27   119 983 74 10 105 .991   1980 18 14 Ron Jackson 345 93 24 3 4 38 29 24 3 36 3 3 2 1 8 11 .270 .321 .391 .712 39   4.1 1.9 6.0 .034 .016 .050 3.85 1980 18 14 Ron Jackson
1980 20 Mike Cubbage MIN 3W L 29 3B   72 512 44 2 56 .996   1980 20 Mike Cubbage 192 47 6 0 5 20 20 14 2 27 1 4 2 0 1 1 .245 .297 .354 .651 21   2.3 1.1 3.4 .032 .015 .047 2.11 1980 20 Mike Cubbage
     
1981 17 Danny Goodwin MIN 7W L 27   40 341 20 3 27 .992   1981 17 Danny Goodwin 125 29 5 1 1 14 10 15 2 28 0 0 1 2 1 2 .232 .312 .312 .624 13   1.6 0.4 2.0 .040 .010 .050 1.26 1981 17 Danny Goodwin
1981 9 12 Ron Jackson MIN 7W R 28   36 309 26 4 26 .988   1981 9 12 Ron Jackson 120 32 8 0 3 12 17 7 0 10 1 2 0 2 1 1 .267 .313 .408 .721 15   2.7 0.5 3.2 .075 .014 .089 2.68 1981 9 12 Ron Jackson
     
1982 3 3 Kent Hrbek a R-2 MIN 7W L 22   138 1174 88 9 125 .993   1982 3 3 Kent Hrbek 526 158 20 4 22 79 91 54 12 78 0 1 4 3 1 17 .300 .363 .479 .842 86   15.5 2.3 17.8 .112 .017 .129 18.56 1982 3 3 Kent Hrbek
     
1983 4 4 Kent Hrbek MIN T5W L 23   137 1151 89 13 125 .990   1983 4 4 Kent Hrbek 507 151 40 5 16 74 82 56 5 69 2 0 6 4 6 10 .298 .366 .491 .857 90   17.4 1.9 19.3 .127 .014 .141 20.84 1983 4 4 Kent Hrbek
1983 33 Scott Ullger R MIN T5W R 27   30 185 8 2 14 .990   1983 33 Scott Ullger 71 15 4 0 0 6 5 5 0 19 1 0 0 0 1 6 .211 .273 .268 .541 2   - - - .000 .000 .000 - 1983 33 Scott Ullger
     
1984 4 4 Kent Hrbek 2 MIN T2W L 24   148 1320 99 14 113 .990   1984 4 4 Kent Hrbek 556 173 31 3 27 80 107 64 15 87 4 1 6 1 1 17 .311 .383 .523 .906 107   21.7 2.4 24.1 .147 .016 .163 26.81 1984 4 4 Kent Hrbek
     
1985 4 4 Kent Hrbek MIN T4W L 25   156 1339 114 8 114 .995   1985 4 4 Kent Hrbek 580 161 31 2 19 77 87 67 12 85 2 0 4 1 1 11 .278 .352 .436 .788 89   16.3 2.7 19.0 .104 .017 .122 18.60 1985 4 4 Kent Hrbek
     
Pos St All- Other 1st Base Fielding Statistics Pos St Batting Statistics as First Baseman Win Shares Pos St
Year Rank Rank Name HOF MVP Star Rookie GG SS Team Stdg Bats Age Pos Games PO Assts Err DP F Pct. Year Rank Rank Name At Bats Hits 2B 3B HR Runs RBI BB IBB SO HP SH SF SB CS GDP BA OBA SA OPS RC B WS F WS T WS BWS/G FWS/G TWS/G Adj WSQ Year Rank Rank Name
1986 5 5 Kent Hrbek MIN 6W L 26   147 1218 104 10 137 .992   1986 5 5 Kent Hrbek 544 147 27 1 29 84 91 70 9 80 6 0 7 2 2 15 .270 .356 .483 .839 90   14.8 2.6 17.4 .101 .018 .118 16.93 1986 5 5 Kent Hrbek
1986 26 Mickey Hatcher MIN 6W R 31 LF,DH   22 159 9 2 12 .988   1986 26 Mickey Hatcher 69 18 3 0 1 9 7 2 0 3 0 0 1 1 1 2 .261 .278 .348 .626 6   0.6 0.3 0.9 .027 .014 .041 0.51 1986 26 Mickey Hatcher
     
1987 3 3 Kent Hrbek 16 MIN 1W L 27   137 1179 68 5 112 .996   1987 3 3 Kent Hrbek 472 135 19 1 34 85 90 81 10 59 0 0 5 5 2 13 .286 .387 .547 .934 101   21.8 2.8 24.6 .159 .020 .180 27.83 1987 3 3 Kent Hrbek
1987 21 Gene Larkin R MIN 1W B 24 DH   26 165 10 2 12 .989   1987 21 Gene Larkin 77 21 2 0 2 9 10 7 0 11 0 0 0 0 0 2 .273 .333 .377 .710 10   1.5 0.4 1.9 .058 .015 .073 1.36 1987 21 Gene Larkin
     
1988 7 7 Kent Hrbek MIN 2W L 28 DH   105 842 57 3 92 .997   1988 7 7 Kent Hrbek 383 120 25 0 20 62 59 43 3 34 0 2 6 0 2 8 .313 .377 .535 .912 77   15.4 2.2 17.6 .147 .021 .168 20.33 1988 7 7 Kent Hrbek
1988 11 Gene Larkin MIN 2W B 25 DH   60 466 28 3 46 .994   1988 11 Gene Larkin 207 60 9 2 5 27 30 25 2 24 5 0 1 1 1 5 .290 .378 .425 .803 34   5.9 1.2 7.1 .098 .020 .118 6.88 1988 11 Gene Larkin
     
1989 6 6 Kent Hrbek MIN 5W L 29   89 723 60 4 66 .995   1989 6 6 Kent Hrbek 310 89 12 0 23 53 80 41 3 27 1 1 3 3 0 3 .287 .369 .548 .917 66   14.5 1.8 16.3 .163 .020 .183 18.78 1989 6 6 Kent Hrbek
1989 16 Gene Larkin MIN 5W B 26 RF,DH   67 463 28 4 45 .992   1989 16 Gene Larkin 183 41 8 1 2 25 21 33 2 21 8 3 4 2 2 6 .224 .360 .311 .671 23   3.6 1.0 4.6 .054 .015 .069 3.25 1989 16 Gene Larkin
1989 17 Randy Bush MIN 5W L 30 LF,RF   25 139 7 0 13 1.000   1989 17 Randy Bush 55 17 3 2 4 9 18 10 0 17 0 0 1 0 1 1 .309 .409 .655 1.064 15   2.7 0.3 3.0 .108 .012 .120 2.80 1989 17 Randy Bush
     
1990 8 7 Kent Hrbek MIN 7W L 30 DH   120 1057 81 3 100 .997   1990 8 7 Kent Hrbek 418 116 20 0 19 54 64 57 6 40 5 2 6 4 1 17 .278 .366 .462 .828 70   13.5 2.4 15.9 .113 .020 .133 15.22 1990 8 7 Kent Hrbek
1990 23 Gene Larkin MIN 7W B 27 RF,DH   28 222 13 2 28 .992   1990 23 Gene Larkin 96 25 4 1 0 13 6 10 0 13 1 3 0 1 0 1 .260 .336 .323 .659 11   1.7 0.4 2.1 .061 .014 .075 1.51 1990 23 Gene Larkin
     
1991 4 4 Kent Hrbek MIN 1W L 31   128 1138 95 8 110 .994   1991 4 4 Kent Hrbek 458 128 20 1 19 73 87 67 4 48 0 3 2 3 4 15 .279 .370 .452 .822 76   14.8 2.2 17.0 .116 .017 .133 17.89 1991 4 4 Kent Hrbek
1991 26 Gene Larkin MIN 1W B 28 RF   39 281 19 1 22 .997   1991 26 Gene Larkin 91 27 4 0 1 10 6 11 1 7 0 3 1 0 2 4 .297 .369 .374 .743 12   1.4 0.5 1.9 .036 .013 .049 1.21 1991 26 Gene Larkin
     
1992 11 10 Kent Hrbek MIN 2W L 32   104 954 68 3 75 .997   1992 11 10 Kent Hrbek 368 89 19 0 15 49 56 64 9 51 0 2 3 5 2 13 .242 .352 .416 .768 51   7.8 2.3 10.1 .075 .022 .097 8.77 1992 11 10 Kent Hrbek
1992 18 Gene Larkin MIN 2W B 29 RF   55 456 30 4 49 .992   1992 18 Gene Larkin 180 40 10 0 4 19 25 14 3 22 0 0 3 4 1 6 .222 .274 .344 .618 16   2.4 0.9 3.3 .044 .016 .060 2.25 1992 18 Gene Larkin
     
1993 11 10 Kent Hrbek MIN T5W L 33   115 940 81 5 98 .995   1993 11 10 Kent Hrbek 379 92 11 1 24 60 81 68 6 55 1 3 4 4 2 12 .243 .356 .467 .823 64   10.1 2.3 12.4 .088 .020 .108 10.51 1993 11 10 Kent Hrbek
1993 28 Dave McCarty R MIN T5W R 23 LF,RF   36 278 30 2 24 .994   1993 28 Dave McCarty 99 29 7 2 1 17 12 5 0 22 3 0 0 2 0 3 .293 .346 .434 .780 15   - 0.5 0.5 .000 .014 .014 0.15 1993 28 Dave McCarty
     
1994 10 10 Kent Hrbek MIN 4C L 34   72 566 41 2 50 .997   1994 10 10 Kent Hrbek 250 68 10 0 10 33 47 31 4 25 1 0 5 0 0 7 .272 .348 .432 .780 38   6.9 0.8 7.7 .096 .011 .107 6.74 1994 10 10 Kent Hrbek
1994 21 Dave McCarty MIN 4C R 24   32 227 27 5 19 .981   1994 21 Dave McCarty 99 29 7 2 1 17 12 5 0 22 3 0 0 2 0 3 .293 .346 .434 .780 14   1.5 0.3 1.8 .047 .009 .056 1.14 1994 21 Dave McCarty
     
1995 19 14 Scott Stahoviak R MIN 5C L 25 3B   69 494 61 1 48 .998   1995 19 14 Scott Stahoviak 197 53 15 0 2 26 11 24 1 39 0 0 1 4 1 3 .269 .347 .376 .723 27   3.4 0.8 4.2 .049 .012 .061 2.69 1995 19 14 Scott Stahoviak
1995 25 Dan Masteller R MIN 5C L 27   48 333 21 2 35 .994   1995 25 Dan Masteller 123 35 10 0 2 16 16 7 0 10 1 0 1 1 1 4 .285 .326 .415 .741 14   - 0.4 0.4 .000 .008 .008 0.09 1995 25 Dan Masteller
1995 24 Ron Coomer R MIN 5C R 28   22 131 13 1 13 .993   1995 24 Ron Coomer 55 18 2 1 2 9 11 4 0 7 1 0 0 0 1 4 .327 .383 .509 .892 9   1.1 0.2 1.3 .050 .009 .059 0.82 1995 24 Ron Coomer
     
1996 9 9 Scott Stahoviak MIN 4C L 26   114 801 92 5 79 .994   1996 9 9 Scott Stahoviak 362 99 29 2 11 62 56 49 7 103 2 1 2 2 3 9 .273 .361 .456 .817 59   8.4 2.3 10.7 .074 .020 .094 8.66 1996 9 9 Scott Stahoviak
1996 21 Ron Coomer R MIN 4C R 29 RF   57 244 39 2 26 .993   1996 21 Ron Coomer 123 41 8 1 6 20 21 7 0 10 0 0 3 2 0 4 .333 .361 .561 .922 24   2.8 0.6 3.4 .049 .011 .060 2.20 1996 21 Ron Coomer
     
1997 19 14 Scott Stahoviak MIN 4C L 27   81 607 58 7 67 .990   1997 19 14 Scott Stahoviak 244 55 14 0 9 30 29 24 1 65 6 0 4 3 2 6 .225 .306 .393 .699 30   2.7 0.8 3.5 .033 .010 .043 1.90 1997 19 14 Scott Stahoviak
1997 22 Greg Colbrunn MIN 4C R 27   64 475 35 6 60 .988   1997 22 Greg Colbrunn 212 59 14 0 4 23 22 8 1 38 1 0 2 1 2 7 .278 .305 .401 .706 23   2.1 0.6 2.7 .033 .009 .042 1.45 1997 22 Greg Colbrunn
     
1998 13 12 David Ortiz R MIN 4C L 22   70 503 46 6 51 .989   1998 13 12 David Ortiz 240 67 16 0 9 44 41 32 3 61 3 0 4 0 0 8 .279 .366 .458 .824 41   7.1 0.9 8.0 .101 .013 .114 7.50 1998 13 12 David Ortiz
1998 21 Ron Coomer MIN 4C R 31 3B   54 371 34 1 32 .998   1998 21 Ron Coomer 171 44 4 1 5 19 28 6 0 33 0 0 5 1 0 5 .257 .275 .380 .655 17   0.9 0.8 1.7 .017 .015 .031 0.84 1998 21 Ron Coomer
1998 18 Orlando Merced MIN 4C B 31   38 299 21 6 32 .982   1998 18 Orlando Merced 131 36 8 0 3 13 22 11 2 19 1 0 0 1 2 2 .275 .336 .405 .741 17   2.2 0.6 2.8 .058 .016 .074 2.10 1998 18 Orlando Merced
     
1999 24 14 Doug Mientkiewicz R MIN 5C L 25   110 882 50 3 75 .997   1999 24 14 Doug Mientkiewicz 316 73 20 3 2 33 32 41 3 48 4 3 2 1 1 13 .231 .325 .332 .657 34   0.9 1.8 2.7 .008 .016 .025 1.18 1999 24 14 Doug Mientkiewicz
1999 20 Ron Coomer a MIN 5C R 32 3B   71 518 47 2 57 .996   1999 20 Ron Coomer 248 67 13 0 9 35 37 21 1 36 0 0 1 1 1 8 .270 .326 .431 .757 33   2.5 1.3 3.8 .035 .018 .054 2.44 1999 20 Ron Coomer
     
Pos St All- Other 1st Base Fielding Statistics Pos St Batting Statistics as First Baseman Win Shares Pos St
Year Rank Rank Name HOF MVP Star Rookie GG SS Team Stdg Bats Age Pos Games PO Assts Err DP F Pct. Year Rank Rank Name At Bats Hits 2B 3B HR Runs RBI BB IBB SO HP SH SF SB CS GDP BA OBA SA OPS RC B WS F WS T WS BWS/G FWS/G TWS/G Adj WSQ Year Rank Rank Name
2000 15 13 Ron Coomer MIN 5C R 33   124 1021 67 5 102 .995   2000 15 13 Ron Coomer 485 130 28 1 15 57 76 34 2 47 3 0 5 2 0 21 .268 .317 .423 .740 60   5.2 2.9 8.1 .042 .023 .065 5.32 2000 15 13 Ron Coomer
2000 24 David Ortiz MIN 5C L 24 DH   27 210 12 1 17 .996   2000 24 David Ortiz 92 22 9 1 0 8 10 16 1 14 0 0 0 0 0 0 .239 .352 .359 .711 13   1.3 0.5 1.8 .048 .019 .067 1.20 2000 24 David Ortiz
     
2001 7 7 Doug Mientkiewicz T14 G MIN 2C L 27   148 1263 69 4 95 .997   2001 7 7 Doug Mientkiewicz 531 162 37 1 15 74 74 64 5 91 9 0 7 2 6 10 .305 .385 .463 .848 96   15.0 2.9 17.9 .101 .020 .121 15.95 2001 7 7 Doug Mientkiewicz
     
2002 7 7 Doug Mientkiewicz MIN 1C L 28   143 1073 69 5 92 .996   2002 7 7 Doug Mientkiewicz 466 121 28 1 10 60 62 74 8 69 6 0 7 1 2 7 .260 .363 .388 .751 66   13.5 2.7 16.2 .094 .019 .113 14.10 2002 7 7 Doug Mientkiewicz
     
2003 3 3 Doug Mientkiewicz MIN 1C L 29   139 1091 68 4 86 .997   2003 3 3 Doug Mientkiewicz 477 142 35 1 11 63 62 72 4 55 5 2 5 4 1 8 .298 .392 .444 .836 86   16.1 2.3 18.4 .116 .017 .132 19.03 2003 3 3 Doug Mientkiewicz
     
2004 18 12 Doug Mientkiewicz MIN 1C L 30   77 661 37 4 61 .994   2004 18 12 Doug Mientkiewicz 284 70 18 0 5 34 25 38 2 38 3 2 1 2 2 9 .246 .340 .363 .703 35   3.3 1.2 4.5 .043 .016 .058 3.19 2004 18 12 Doug Mientkiewicz
2004 11 Justin Morneau R MIN 1C L 23   61 523 41 3 54 .995   2004 11 Justin Morneau 234 59 15 0 14 31 45 25 7 45 2 0 2 0 0 3 .252 .327 .496 .823 39   6.5 1.0 7.5 .107 .016 .123 8.09 2004 11 Justin Morneau
2004 27 Matt LeCroy MIN 1C R 28 C,DH   23 172 3 1 17 .994   2004 27 Matt LeCroy 84 24 6 0 1 10 6 1 0 10 0 0 0 0 0 1 .286 .294 .393 .687 9   1.0 0.3 1.3 .043 .013 .057 0.95 2004 27 Matt LeCroy
     
2005 16 13 Justin Morneau MIN 3C L 24   138 1191 91 8 123 .994   2005 16 13 Justin Morneau 487 116 23 4 21 61 76 42 7 94 4 0 5 0 2 11 .238 .301 .431 .732 62   6.8 1.0 7.8 .049 .007 .057 5.29 2005 16 13 Justin Morneau
2005 22 Matt LeCroy MIN 3C R 29 DH   23 203 8 3 18 .986   2005 22 Matt LeCroy 78 23 3 0 3 10 12 10 0 20 2 0 1 0 0 0 .295 .385 .449 .834 15   2.4 0.2 2.6 .104 .009 .113 2.50 2005 22 Matt LeCroy
     
2006 1 1 Justin Morneau 1 S MIN 1C L 25   153 1295 111 8 112 .994   2006 1 1 Justin Morneau 573 186 37 1 34 94 129 52 8 87 5 0 11 2 3 9 .325 .379 .571 .950 125   25.0 2.1 27.1 .163 .014 .177 33.69 2006 1 1 Justin Morneau
     
2007 3 3 Justin Morneau T20 a MIN 3C L 26   143 1189 102 5 122 .996   2007 3 3 Justin Morneau 537 142 30 3 27 78 95 60 11 80 5 0 9 0 1 17 .264 .339 .482 .821 86   14.5 1.7 16.2 .101 .012 .113 16.85 2007 3 3 Justin Morneau
     
2008 1 1 Justin Morneau 2 a S MIN 2C L 27   155 1316 89 4 149 .997   2008 1 1 Justin Morneau 591 176 47 4 22 96 120 70 14 79 3 0 10 0 1 20 .298 .369 .503 .872 107   25.1 1.9 27.0 .162 .012 .174 32.32 2008 1 1 Justin Morneau
     
2009 5 5 Justin Morneau a MIN 1C L 28   123 952 90 3 88 .997   2009 5 5 Justin Morneau 462 126 30 1 25 76 86 65 11 78 3 0 7 0 0 11 .273 .361 .504 .865 86   16.0 1.5 17.5 .130 .012 .142 18.27 2009 5 5 Justin Morneau
2009 12 Michael Cuddyer T21 MIN 1C R 30 RF   34 278 14 4 27 .986   2009 12 Michael Cuddyer 135 43 7 1 13 27 32 10 1 23 3 0 0 1 0 6 .319 .378 .674 1.052 32   4.9 0.4 5.3 .144 .012 .156 5.79 2009 12 Michael Cuddyer
     
2010 11 9 Michael Cuddyer MIN 1C R 31 RF   84 760 39 3 70 .996   2010 11 9 Michael Cuddyer 319 90 21 3 7 51 45 30 4 47 3 0 1 5 2 13 .282 .348 .433 .781 45   6.9 1.5 8.4 .082 .018 .100 7.06 2010 11 9 Michael Cuddyer
2010 4 Justin Morneau A-INJ MIN 1C L 29   77 674 59 1 64 .999   2010 4 Justin Morneau 289 101 25 1 18 52 55 48 6 60 0 0 2 0 0 6 .349 .440 .630 1.070 82   16.5 1.4 17.9 .214 .018 .232 22.92 2010 4 Justin Morneau
Copyright 2009-11 by Andre Lower
Sources:
All-Time Major League Handbook
Win Shares Digital Update
baseball-reference.com
ESPN Baseball Encyclopedia